sensor_id;sensor_type;location;lat;lon;timestamp;P1;durP1;ratioP1;P2;durP2;ratioP2
77078;SDS011;66004;55.096;38.760;2023-06-14T00:00:13;6.03;;;2.30;;
77078;SDS011;66004;55.096;38.760;2023-06-14T00:02:39;7.00;;;2.63;;
77078;SDS011;66004;55.096;38.760;2023-06-14T00:05:05;4.75;;;2.60;;
77078;SDS011;66004;55.096;38.760;2023-06-14T00:07:38;10.43;;;3.10;;
77078;SDS011;66004;55.096;38.760;2023-06-14T00:10:08;10.18;;;2.83;;
77078;SDS011;66004;55.096;38.760;2023-06-14T00:12:34;8.95;;;2.63;;
77078;SDS011;66004;55.096;38.760;2023-06-14T00:15:01;9.20;;;2.75;;
77078;SDS011;66004;55.096;38.760;2023-06-14T00:17:27;4.43;;;2.35;;
77078;SDS011;66004;55.096;38.760;2023-06-14T00:19:56;7.03;;;2.75;;
77078;SDS011;66004;55.096;38.760;2023-06-14T00:22:23;9.82;;;2.40;;
77078;SDS011;66004;55.096;38.760;2023-06-14T00:24:53;7.45;;;2.60;;
77078;SDS011;66004;55.096;38.760;2023-06-14T00:27:19;6.40;;;2.60;;
77078;SDS011;66004;55.096;38.760;2023-06-14T00:29:45;11.48;;;2.22;;
77078;SDS011;66004;55.096;38.760;2023-06-14T00:32:11;7.00;;;2.20;;
77078;SDS011;66004;55.096;38.760;2023-06-14T00:34:36;11.00;;;2.65;;
77078;SDS011;66004;55.096;38.760;2023-06-14T00:37:02;11.80;;;3.50;;
77078;SDS011;66004;55.096;38.760;2023-06-14T00:39:27;4.85;;;2.38;;
77078;SDS011;66004;55.096;38.760;2023-06-14T00:41:53;3.97;;;2.42;;
77078;SDS011;66004;55.096;38.760;2023-06-14T00:44:18;7.38;;;2.35;;
77078;SDS011;66004;55.096;38.760;2023-06-14T00:46:47;8.32;;;2.55;;
77078;SDS011;66004;55.096;38.760;2023-06-14T00:49:15;14.73;;;2.95;;
77078;SDS011;66004;55.096;38.760;2023-06-14T00:51:42;14.68;;;3.47;;
77078;SDS011;66004;55.096;38.760;2023-06-14T00:54:08;13.65;;;2.60;;
77078;SDS011;66004;55.096;38.760;2023-06-14T00:56:38;13.20;;;2.35;;
77078;SDS011;66004;55.096;38.760;2023-06-14T00:59:04;12.13;;;2.72;;
77078;SDS011;66004;55.096;38.760;2023-06-14T01:01:31;10.70;;;2.78;;
77078;SDS011;66004;55.096;38.760;2023-06-14T01:03:59;12.98;;;3.13;;
77078;SDS011;66004;55.096;38.760;2023-06-14T01:06:35;17.10;;;2.90;;
77078;SDS011;66004;55.096;38.760;2023-06-14T01:12:31;14.38;;;3.00;;
77078;SDS011;66004;55.096;38.760;2023-06-14T01:15:06;21.00;;;2.97;;
77078;SDS011;66004;55.096;38.760;2023-06-14T01:17:33;9.45;;;2.67;;
77078;SDS011;66004;55.096;38.760;2023-06-14T01:20:01;16.67;;;3.67;;
77078;SDS011;66004;55.096;38.760;2023-06-14T01:22:31;12.35;;;3.38;;
77078;SDS011;66004;55.096;38.760;2023-06-14T01:24:56;7.55;;;2.63;;
77078;SDS011;66004;55.096;38.760;2023-06-14T01:27:23;9.48;;;2.63;;
77078;SDS011;66004;55.096;38.760;2023-06-14T01:29:53;12.30;;;2.60;;
77078;SDS011;66004;55.096;38.760;2023-06-14T01:32:26;9.45;;;3.15;;
77078;SDS011;66004;55.096;38.760;2023-06-14T01:34:52;6.93;;;2.85;;
77078;SDS011;66004;55.096;38.760;2023-06-14T01:37:18;10.38;;;2.50;;
77078;SDS011;66004;55.096;38.760;2023-06-14T01:39:44;13.38;;;2.72;;
77078;SDS011;66004;55.096;38.760;2023-06-14T01:42:12;8.30;;;2.83;;
77078;SDS011;66004;55.096;38.760;2023-06-14T01:44:39;6.13;;;2.70;;
77078;SDS011;66004;55.096;38.760;2023-06-14T01:47:07;9.23;;;2.90;;
77078;SDS011;66004;55.096;38.760;2023-06-14T01:49:33;12.18;;;2.97;;
77078;SDS011;66004;55.096;38.760;2023-06-14T01:52:00;8.65;;;2.95;;
77078;SDS011;66004;55.096;38.760;2023-06-14T01:54:25;5.30;;;2.42;;
77078;SDS011;66004;55.096;38.760;2023-06-14T01:56:52;8.27;;;2.55;;
77078;SDS011;66004;55.096;38.760;2023-06-14T01:59:18;8.95;;;2.30;;
77078;SDS011;66004;55.096;38.760;2023-06-14T02:01:43;11.35;;;3.40;;
77078;SDS011;66004;55.096;38.760;2023-06-14T02:04:11;8.63;;;2.67;;
77078;SDS011;66004;55.096;38.760;2023-06-14T02:06:37;7.90;;;2.60;;
77078;SDS011;66004;55.096;38.760;2023-06-14T02:09:02;14.32;;;4.18;;
77078;SDS011;66004;55.096;38.760;2023-06-14T02:11:28;8.30;;;2.25;;
77078;SDS011;66004;55.096;38.760;2023-06-14T02:13:54;10.70;;;2.83;;
77078;SDS011;66004;55.096;38.760;2023-06-14T02:16:20;11.63;;;3.35;;
77078;SDS011;66004;55.096;38.760;2023-06-14T02:18:47;8.40;;;2.95;;
77078;SDS011;66004;55.096;38.760;2023-06-14T02:21:13;10.73;;;2.65;;
77078;SDS011;66004;55.096;38.760;2023-06-14T02:23:39;11.43;;;2.67;;
77078;SDS011;66004;55.096;38.760;2023-06-14T02:26:05;8.27;;;3.20;;
77078;SDS011;66004;55.096;38.760;2023-06-14T02:28:30;10.35;;;2.88;;
77078;SDS011;66004;55.096;38.760;2023-06-14T02:30:56;10.10;;;3.08;;
77078;SDS011;66004;55.096;38.760;2023-06-14T02:33:21;12.20;;;2.85;;
77078;SDS011;66004;55.096;38.760;2023-06-14T02:35:47;9.43;;;3.40;;
77078;SDS011;66004;55.096;38.760;2023-06-14T02:38:12;11.77;;;3.30;;
77078;SDS011;66004;55.096;38.760;2023-06-14T02:40:38;9.00;;;3.08;;
77078;SDS011;66004;55.096;38.760;2023-06-14T02:43:03;10.15;;;3.67;;
77078;SDS011;66004;55.096;38.760;2023-06-14T02:45:32;6.78;;;2.70;;
77078;SDS011;66004;55.096;38.760;2023-06-14T02:47:57;10.88;;;3.20;;
77078;SDS011;66004;55.096;38.760;2023-06-14T02:50:23;10.25;;;3.10;;
77078;SDS011;66004;55.096;38.760;2023-06-14T02:52:52;13.23;;;3.25;;
77078;SDS011;66004;55.096;38.760;2023-06-14T02:55:17;12.98;;;3.63;;
77078;SDS011;66004;55.096;38.760;2023-06-14T02:57:43;13.02;;;3.00;;
77078;SDS011;66004;55.096;38.760;2023-06-14T03:00:09;9.55;;;3.30;;
77078;SDS011;66004;55.096;38.760;2023-06-14T03:02:35;13.75;;;3.30;;
77078;SDS011;66004;55.096;38.760;2023-06-14T03:05:01;21.40;;;4.13;;
77078;SDS011;66004;55.096;38.760;2023-06-14T03:07:28;13.82;;;3.30;;
77078;SDS011;66004;55.096;38.760;2023-06-14T03:09:54;13.18;;;4.03;;
77078;SDS011;66004;55.096;38.760;2023-06-14T03:12:20;17.73;;;3.67;;
77078;SDS011;66004;55.096;38.760;2023-06-14T03:14:46;17.95;;;3.42;;
77078;SDS011;66004;55.096;38.760;2023-06-14T03:17:12;16.73;;;4.05;;
77078;SDS011;66004;55.096;38.760;2023-06-14T03:19:37;9.55;;;2.53;;
77078;SDS011;66004;55.096;38.760;2023-06-14T03:22:03;15.50;;;3.35;;
77078;SDS011;66004;55.096;38.760;2023-06-14T03:24:29;9.07;;;2.60;;
77078;SDS011;66004;55.096;38.760;2023-06-14T03:26:56;13.95;;;3.28;;
77078;SDS011;66004;55.096;38.760;2023-06-14T03:29:22;13.52;;;3.00;;
77078;SDS011;66004;55.096;38.760;2023-06-14T03:32:00;7.97;;;4.00;;
77078;SDS011;66004;55.096;38.760;2023-06-14T03:34:27;14.15;;;6.28;;
77078;SDS011;66004;55.096;38.760;2023-06-14T03:36:52;20.30;;;7.35;;
77078;SDS011;66004;55.096;38.760;2023-06-14T03:39:18;17.63;;;5.28;;
77078;SDS011;66004;55.096;38.760;2023-06-14T03:41:45;15.27;;;5.85;;
77078;SDS011;66004;55.096;38.760;2023-06-14T03:44:10;13.18;;;5.13;;
77078;SDS011;66004;55.096;38.760;2023-06-14T03:46:36;13.52;;;5.50;;
77078;SDS011;66004;55.096;38.760;2023-06-14T03:49:01;11.13;;;3.50;;
77078;SDS011;66004;55.096;38.760;2023-06-14T03:51:27;9.88;;;3.83;;
77078;SDS011;66004;55.096;38.760;2023-06-14T03:53:53;8.65;;;3.92;;
77078;SDS011;66004;55.096;38.760;2023-06-14T03:56:20;8.00;;;3.70;;
77078;SDS011;66004;55.096;38.760;2023-06-14T03:58:46;8.70;;;4.35;;
77078;SDS011;66004;55.096;38.760;2023-06-14T04:01:12;6.13;;;2.97;;
77078;SDS011;66004;55.096;38.760;2023-06-14T04:03:37;8.48;;;3.33;;
77078;SDS011;66004;55.096;38.760;2023-06-14T04:06:05;6.63;;;2.47;;
77078;SDS011;66004;55.096;38.760;2023-06-14T04:08:31;9.05;;;2.20;;
77078;SDS011;66004;55.096;38.760;2023-06-14T04:10:57;5.88;;;2.20;;
77078;SDS011;66004;55.096;38.760;2023-06-14T04:13:22;9.10;;;2.40;;
77078;SDS011;66004;55.096;38.760;2023-06-14T04:15:48;6.63;;;1.98;;
77078;SDS011;66004;55.096;38.760;2023-06-14T04:18:14;7.95;;;2.15;;
77078;SDS011;66004;55.096;38.760;2023-06-14T04:20:40;8.75;;;2.60;;
77078;SDS011;66004;55.096;38.760;2023-06-14T04:23:15;7.13;;;2.20;;
77078;SDS011;66004;55.096;38.760;2023-06-14T04:25:43;11.70;;;2.47;;
77078;SDS011;66004;55.096;38.760;2023-06-14T04:28:12;7.10;;;2.45;;
77078;SDS011;66004;55.096;38.760;2023-06-14T04:30:42;6.55;;;2.72;;
77078;SDS011;66004;55.096;38.760;2023-06-14T04:33:08;7.60;;;2.67;;
77078;SDS011;66004;55.096;38.760;2023-06-14T04:35:35;8.45;;;2.70;;
77078;SDS011;66004;55.096;38.760;2023-06-14T04:38:02;5.13;;;2.80;;
77078;SDS011;66004;55.096;38.760;2023-06-14T04:40:30;9.80;;;3.30;;
77078;SDS011;66004;55.096;38.760;2023-06-14T04:42:56;6.85;;;2.47;;
77078;SDS011;66004;55.096;38.760;2023-06-14T04:45:22;3.92;;;2.20;;
77078;SDS011;66004;55.096;38.760;2023-06-14T04:47:49;4.43;;;2.40;;
77078;SDS011;66004;55.096;38.760;2023-06-14T04:50:15;6.72;;;1.98;;
77078;SDS011;66004;55.096;38.760;2023-06-14T04:52:43;5.88;;;2.08;;
77078;SDS011;66004;55.096;38.760;2023-06-14T04:55:08;4.47;;;1.80;;
77078;SDS011;66004;55.096;38.760;2023-06-14T04:57:35;4.13;;;1.75;;
77078;SDS011;66004;55.096;38.760;2023-06-14T05:00:00;5.10;;;2.08;;
77078;SDS011;66004;55.096;38.760;2023-06-14T05:02:29;6.18;;;2.45;;
77078;SDS011;66004;55.096;38.760;2023-06-14T05:04:58;4.35;;;1.80;;
77078;SDS011;66004;55.096;38.760;2023-06-14T05:07:32;7.82;;;2.15;;
77078;SDS011;66004;55.096;38.760;2023-06-14T05:10:06;7.72;;;2.10;;
77078;SDS011;66004;55.096;38.760;2023-06-14T05:12:32;8.90;;;2.30;;
77078;SDS011;66004;55.096;38.760;2023-06-14T05:14:59;5.45;;;2.45;;
77078;SDS011;66004;55.096;38.760;2023-06-14T05:17:24;6.45;;;2.15;;
77078;SDS011;66004;55.096;38.760;2023-06-14T05:19:52;6.05;;;2.50;;
77078;SDS011;66004;55.096;38.760;2023-06-14T05:22:18;5.47;;;2.85;;
77078;SDS011;66004;55.096;38.760;2023-06-14T05:24:44;5.50;;;2.42;;
77078;SDS011;66004;55.096;38.760;2023-06-14T05:27:11;5.30;;;2.60;;
77078;SDS011;66004;55.096;38.760;2023-06-14T05:29:36;4.45;;;2.60;;
77078;SDS011;66004;55.096;38.760;2023-06-14T05:32:02;4.85;;;2.50;;
77078;SDS011;66004;55.096;38.760;2023-06-14T05:34:28;4.50;;;2.30;;
77078;SDS011;66004;55.096;38.760;2023-06-14T05:36:54;8.48;;;2.70;;
77078;SDS011;66004;55.096;38.760;2023-06-14T05:39:20;8.63;;;2.40;;
77078;SDS011;66004;55.096;38.760;2023-06-14T05:41:45;4.75;;;2.22;;
77078;SDS011;66004;55.096;38.760;2023-06-14T05:44:11;9.73;;;2.50;;
77078;SDS011;66004;55.096;38.760;2023-06-14T05:46:37;4.30;;;1.70;;
77078;SDS011;66004;55.096;38.760;2023-06-14T05:49:05;4.85;;;1.85;;
77078;SDS011;66004;55.096;38.760;2023-06-14T05:51:30;5.43;;;1.80;;
77078;SDS011;66004;55.096;38.760;2023-06-14T05:53:56;3.33;;;1.70;;
77078;SDS011;66004;55.096;38.760;2023-06-14T05:56:22;3.05;;;1.50;;
77078;SDS011;66004;55.096;38.760;2023-06-14T05:58:47;7.35;;;1.63;;
77078;SDS011;66004;55.096;38.760;2023-06-14T06:01:13;3.28;;;1.50;;
77078;SDS011;66004;55.096;38.760;2023-06-14T06:03:41;2.22;;;1.40;;
77078;SDS011;66004;55.096;38.760;2023-06-14T06:06:12;5.88;;;1.70;;
77078;SDS011;66004;55.096;38.760;2023-06-14T06:08:38;5.50;;;1.50;;
77078;SDS011;66004;55.096;38.760;2023-06-14T06:11:03;7.20;;;1.20;;
77078;SDS011;66004;55.096;38.760;2023-06-14T06:13:29;4.22;;;1.30;;
77078;SDS011;66004;55.096;38.760;2023-06-14T06:15:54;2.03;;;1.15;;
77078;SDS011;66004;55.096;38.760;2023-06-14T06:18:21;2.88;;;1.20;;
77078;SDS011;66004;55.096;38.760;2023-06-14T06:20:46;5.65;;;1.92;;
77078;SDS011;66004;55.096;38.760;2023-06-14T06:23:13;3.80;;;1.20;;
77078;SDS011;66004;55.096;38.760;2023-06-14T06:25:38;2.83;;;1.10;;
77078;SDS011;66004;55.096;38.760;2023-06-14T06:28:04;2.13;;;1.30;;
77078;SDS011;66004;55.096;38.760;2023-06-14T06:30:31;4.63;;;1.52;;
77078;SDS011;66004;55.096;38.760;2023-06-14T06:32:57;5.70;;;1.30;;
77078;SDS011;66004;55.096;38.760;2023-06-14T06:35:23;3.97;;;1.50;;
77078;SDS011;66004;55.096;38.760;2023-06-14T06:37:48;3.15;;;1.20;;
77078;SDS011;66004;55.096;38.760;2023-06-14T06:40:14;4.00;;;1.33;;
77078;SDS011;66004;55.096;38.760;2023-06-14T06:42:39;3.17;;;1.17;;
77078;SDS011;66004;55.096;38.760;2023-06-14T06:45:05;5.13;;;1.20;;
77078;SDS011;66004;55.096;38.760;2023-06-14T06:47:31;3.30;;;1.17;;
77078;SDS011;66004;55.096;38.760;2023-06-14T06:49:56;4.60;;;1.25;;
77078;SDS011;66004;55.096;38.760;2023-06-14T06:52:22;6.07;;;1.27;;
77078;SDS011;66004;55.096;38.760;2023-06-14T06:54:47;5.90;;;1.38;;
77078;SDS011;66004;55.096;38.760;2023-06-14T06:57:14;5.30;;;1.42;;
77078;SDS011;66004;55.096;38.760;2023-06-14T06:59:39;9.52;;;1.70;;
77078;SDS011;66004;55.096;38.760;2023-06-14T07:02:05;2.67;;;1.30;;
77078;SDS011;66004;55.096;38.760;2023-06-14T07:04:31;6.20;;;1.90;;
77078;SDS011;66004;55.096;38.760;2023-06-14T07:06:56;4.40;;;1.40;;
77078;SDS011;66004;55.096;38.760;2023-06-14T07:09:22;6.20;;;1.30;;
77078;SDS011;66004;55.096;38.760;2023-06-14T07:11:48;2.42;;;1.30;;
77078;SDS011;66004;55.096;38.760;2023-06-14T07:14:14;3.00;;;1.55;;
77078;SDS011;66004;55.096;38.760;2023-06-14T07:16:40;2.92;;;1.27;;
77078;SDS011;66004;55.096;38.760;2023-06-14T07:19:06;6.32;;;1.25;;
77078;SDS011;66004;55.096;38.760;2023-06-14T07:21:31;2.35;;;1.13;;
77078;SDS011;66004;55.096;38.760;2023-06-14T07:23:57;3.90;;;1.30;;
77078;SDS011;66004;55.096;38.760;2023-06-14T07:26:23;3.65;;;1.27;;
77078;SDS011;66004;55.096;38.760;2023-06-14T07:28:48;5.40;;;1.60;;
77078;SDS011;66004;55.096;38.760;2023-06-14T07:31:14;3.67;;;1.40;;
77078;SDS011;66004;55.096;38.760;2023-06-14T07:33:41;2.90;;;1.40;;
77078;SDS011;66004;55.096;38.760;2023-06-14T07:36:07;4.70;;;1.83;;
77078;SDS011;66004;55.096;38.760;2023-06-14T07:38:33;6.55;;;2.05;;
77078;SDS011;66004;55.096;38.760;2023-06-14T07:40:59;4.22;;;1.38;;
77078;SDS011;66004;55.096;38.760;2023-06-14T07:43:25;5.32;;;1.50;;
77078;SDS011;66004;55.096;38.760;2023-06-14T07:45:50;3.95;;;1.50;;
77078;SDS011;66004;55.096;38.760;2023-06-14T07:48:16;4.97;;;1.30;;
77078;SDS011;66004;55.096;38.760;2023-06-14T07:50:41;2.22;;;1.45;;
77078;SDS011;66004;55.096;38.760;2023-06-14T07:53:07;3.47;;;1.45;;
77078;SDS011;66004;55.096;38.760;2023-06-14T07:55:33;6.65;;;1.50;;
77078;SDS011;66004;55.096;38.760;2023-06-14T07:58:01;3.40;;;1.38;;
77078;SDS011;66004;55.096;38.760;2023-06-14T08:00:31;4.13;;;1.33;;
77078;SDS011;66004;55.096;38.760;2023-06-14T08:02:57;3.92;;;1.50;;
77078;SDS011;66004;55.096;38.760;2023-06-14T08:05:24;3.78;;;1.35;;
77078;SDS011;66004;55.096;38.760;2023-06-14T08:07:50;2.95;;;1.25;;
77078;SDS011;66004;55.096;38.760;2023-06-14T08:10:16;2.90;;;1.33;;
77078;SDS011;66004;55.096;38.760;2023-06-14T08:12:42;3.13;;;1.30;;
77078;SDS011;66004;55.096;38.760;2023-06-14T08:15:08;5.20;;;1.60;;
77078;SDS011;66004;55.096;38.760;2023-06-14T08:17:34;7.07;;;1.75;;
77078;SDS011;66004;55.096;38.760;2023-06-14T08:20:06;3.38;;;1.40;;
77078;SDS011;66004;55.096;38.760;2023-06-14T08:22:53;3.90;;;1.27;;
77078;SDS011;66004;55.096;38.760;2023-06-14T08:25:22;5.93;;;1.75;;
77078;SDS011;66004;55.096;38.760;2023-06-14T08:27:47;1.75;;;1.40;;
77078;SDS011;66004;55.096;38.760;2023-06-14T08:30:13;4.63;;;1.30;;
77078;SDS011;66004;55.096;38.760;2023-06-14T08:32:39;6.88;;;1.60;;
77078;SDS011;66004;55.096;38.760;2023-06-14T08:35:04;6.28;;;1.65;;
77078;SDS011;66004;55.096;38.760;2023-06-14T08:37:32;7.53;;;1.60;;
77078;SDS011;66004;55.096;38.760;2023-06-14T08:40:01;7.60;;;1.77;;
77078;SDS011;66004;55.096;38.760;2023-06-14T08:42:30;5.82;;;1.70;;
77078;SDS011;66004;55.096;38.760;2023-06-14T08:44:57;4.82;;;1.65;;
77078;SDS011;66004;55.096;38.760;2023-06-14T08:47:23;5.95;;;1.65;;
77078;SDS011;66004;55.096;38.760;2023-06-14T08:49:51;3.00;;;1.50;;
77078;SDS011;66004;55.096;38.760;2023-06-14T08:52:22;5.05;;;1.55;;
77078;SDS011;66004;55.096;38.760;2023-06-14T08:54:49;2.60;;;1.50;;
77078;SDS011;66004;55.096;38.760;2023-06-14T08:57:14;3.08;;;1.60;;
77078;SDS011;66004;55.096;38.760;2023-06-14T08:59:44;2.55;;;1.20;;
77078;SDS011;66004;55.096;38.760;2023-06-14T09:02:11;3.03;;;1.42;;
77078;SDS011;66004;55.096;38.760;2023-06-14T09:04:39;6.10;;;1.80;;
77078;SDS011;66004;55.096;38.760;2023-06-14T09:07:05;4.05;;;1.55;;
77078;SDS011;66004;55.096;38.760;2023-06-14T09:09:31;5.38;;;2.75;;
77078;SDS011;66004;55.096;38.760;2023-06-14T09:11:57;6.80;;;1.70;;
77078;SDS011;66004;55.096;38.760;2023-06-14T09:14:25;2.47;;;1.60;;
77078;SDS011;66004;55.096;38.760;2023-06-14T09:16:54;4.13;;;1.40;;
77078;SDS011;66004;55.096;38.760;2023-06-14T09:19:23;2.97;;;1.58;;
77078;SDS011;66004;55.096;38.760;2023-06-14T09:21:50;8.38;;;1.45;;
77078;SDS011;66004;55.096;38.760;2023-06-14T09:24:17;7.13;;;1.38;;
77078;SDS011;66004;55.096;38.760;2023-06-14T09:26:44;5.20;;;1.90;;
77078;SDS011;66004;55.096;38.760;2023-06-14T09:29:12;5.55;;;1.58;;
77078;SDS011;66004;55.096;38.760;2023-06-14T09:31:37;5.38;;;1.70;;
77078;SDS011;66004;55.096;38.760;2023-06-14T09:34:03;3.58;;;1.45;;
77078;SDS011;66004;55.096;38.760;2023-06-14T09:36:31;2.40;;;1.45;;
77078;SDS011;66004;55.096;38.760;2023-06-14T09:41:33;7.25;;;1.27;;
77078;SDS011;66004;55.096;38.760;2023-06-14T09:44:04;3.33;;;1.40;;
77078;SDS011;66004;55.096;38.760;2023-06-14T09:46:31;3.40;;;1.10;;
77078;SDS011;66004;55.096;38.760;2023-06-14T09:48:59;5.65;;;1.45;;
77078;SDS011;66004;55.096;38.760;2023-06-14T09:51:27;3.75;;;1.27;;
77078;SDS011;66004;55.096;38.760;2023-06-14T09:54:01;6.43;;;1.35;;
77078;SDS011;66004;55.096;38.760;2023-06-14T09:59:03;4.18;;;1.38;;
77078;SDS011;66004;55.096;38.760;2023-06-14T10:01:31;5.85;;;1.40;;
77078;SDS011;66004;55.096;38.760;2023-06-14T10:04:00;5.05;;;1.60;;
77078;SDS011;66004;55.096;38.760;2023-06-14T10:06:29;3.13;;;1.50;;
77078;SDS011;66004;55.096;38.760;2023-06-14T10:08:56;4.60;;;1.35;;
77078;SDS011;66004;55.096;38.760;2023-06-14T10:11:26;3.60;;;1.50;;
77078;SDS011;66004;55.096;38.760;2023-06-14T10:13:53;6.22;;;1.67;;
77078;SDS011;66004;55.096;38.760;2023-06-14T10:16:30;4.15;;;1.52;;
77078;SDS011;66004;55.096;38.760;2023-06-14T10:21:58;2.80;;;1.17;;
77078;SDS011;66004;55.096;38.760;2023-06-14T10:25:01;3.17;;;1.42;;
77078;SDS011;66004;55.096;38.760;2023-06-14T10:27:20;4.18;;;1.70;;
77078;SDS011;66004;55.096;38.760;2023-06-14T10:32:18;2.83;;;1.58;;
77078;SDS011;66004;55.096;38.760;2023-06-14T10:34:44;5.47;;;1.50;;
77078;SDS011;66004;55.096;38.760;2023-06-14T10:37:13;2.22;;;1.20;;
77078;SDS011;66004;55.096;38.760;2023-06-14T10:39:42;2.90;;;1.50;;
77078;SDS011;66004;55.096;38.760;2023-06-14T10:42:10;3.85;;;1.40;;
77078;SDS011;66004;55.096;38.760;2023-06-14T10:47:10;4.00;;;1.70;;
77078;SDS011;66004;55.096;38.760;2023-06-14T10:49:45;5.45;;;1.60;;
77078;SDS011;66004;55.096;38.760;2023-06-14T10:52:16;4.50;;;1.40;;
77078;SDS011;66004;55.096;38.760;2023-06-14T10:57:44;3.60;;;1.52;;
77078;SDS011;66004;55.096;38.760;2023-06-14T11:00:11;3.58;;;1.45;;
77078;SDS011;66004;55.096;38.760;2023-06-14T11:05:57;3.17;;;1.40;;
77078;SDS011;66004;55.096;38.760;2023-06-14T11:11:25;4.20;;;1.27;;
77078;SDS011;66004;55.096;38.760;2023-06-14T11:13:57;3.60;;;1.50;;
77078;SDS011;66004;55.096;38.760;2023-06-14T11:16:25;2.67;;;1.45;;
77078;SDS011;66004;55.096;38.760;2023-06-14T11:18:53;6.13;;;1.90;;
77078;SDS011;66004;55.096;38.760;2023-06-14T11:21:18;4.47;;;1.70;;
77078;SDS011;66004;55.096;38.760;2023-06-14T11:23:50;2.70;;;1.40;;
77078;SDS011;66004;55.096;38.760;2023-06-14T11:26:24;6.22;;;1.77;;
77078;SDS011;66004;55.096;38.760;2023-06-14T11:28:54;5.18;;;1.67;;
77078;SDS011;66004;55.096;38.760;2023-06-14T11:31:20;5.25;;;1.80;;
77078;SDS011;66004;55.096;38.760;2023-06-14T11:33:49;3.80;;;1.63;;
77078;SDS011;66004;55.096;38.760;2023-06-14T11:36:18;3.83;;;1.92;;
77078;SDS011;66004;55.096;38.760;2023-06-14T11:38:43;2.92;;;1.50;;
77078;SDS011;66004;55.096;38.760;2023-06-14T11:41:09;4.50;;;1.60;;
77078;SDS011;66004;55.096;38.760;2023-06-14T11:43:37;7.10;;;1.60;;
77078;SDS011;66004;55.096;38.760;2023-06-14T11:46:04;4.18;;;1.55;;
77078;SDS011;66004;55.096;38.760;2023-06-14T11:48:43;3.35;;;1.60;;
77078;SDS011;66004;55.096;38.760;2023-06-14T11:51:08;5.78;;;1.60;;
77078;SDS011;66004;55.096;38.760;2023-06-14T11:53:34;6.53;;;1.50;;
77078;SDS011;66004;55.096;38.760;2023-06-14T11:56:00;2.80;;;1.70;;
77078;SDS011;66004;55.096;38.760;2023-06-14T11:58:26;7.05;;;1.77;;
77078;SDS011;66004;55.096;38.760;2023-06-14T12:00:53;3.17;;;1.52;;
77078;SDS011;66004;55.096;38.760;2023-06-14T12:03:22;2.92;;;2.00;;
77078;SDS011;66004;55.096;38.760;2023-06-14T12:05:50;5.80;;;1.88;;
77078;SDS011;66004;55.096;38.760;2023-06-14T12:08:31;3.05;;;1.60;;
77078;SDS011;66004;55.096;38.760;2023-06-14T12:11:04;3.83;;;1.50;;
77078;SDS011;66004;55.096;38.760;2023-06-14T12:13:30;4.78;;;1.65;;
77078;SDS011;66004;55.096;38.760;2023-06-14T12:15:56;5.63;;;1.98;;
77078;SDS011;66004;55.096;38.760;2023-06-14T12:18:31;4.63;;;1.33;;
77078;SDS011;66004;55.096;38.760;2023-06-14T12:20:59;4.70;;;1.50;;
77078;SDS011;66004;55.096;38.760;2023-06-14T12:23:38;5.05;;;1.50;;
77078;SDS011;66004;55.096;38.760;2023-06-14T12:26:18;3.03;;;1.55;;
77078;SDS011;66004;55.096;38.760;2023-06-14T12:28:45;6.40;;;1.60;;
77078;SDS011;66004;55.096;38.760;2023-06-14T12:31:12;3.20;;;1.65;;
77078;SDS011;66004;55.096;38.760;2023-06-14T12:33:39;3.75;;;2.00;;
77078;SDS011;66004;55.096;38.760;2023-06-14T12:36:06;4.35;;;1.92;;
77078;SDS011;66004;55.096;38.760;2023-06-14T12:38:33;5.45;;;2.05;;
77078;SDS011;66004;55.096;38.760;2023-06-14T12:40:59;5.95;;;1.95;;
77078;SDS011;66004;55.096;38.760;2023-06-14T12:43:25;5.00;;;1.67;;
77078;SDS011;66004;55.096;38.760;2023-06-14T12:45:50;5.70;;;1.70;;
77078;SDS011;66004;55.096;38.760;2023-06-14T12:48:16;4.45;;;1.52;;
77078;SDS011;66004;55.096;38.760;2023-06-14T12:50:41;5.47;;;1.77;;
77078;SDS011;66004;55.096;38.760;2023-06-14T12:53:07;4.72;;;1.70;;
77078;SDS011;66004;55.096;38.760;2023-06-14T12:55:33;5.18;;;1.50;;
77078;SDS011;66004;55.096;38.760;2023-06-14T12:57:58;4.55;;;1.88;;
77078;SDS011;66004;55.096;38.760;2023-06-14T13:00:24;7.05;;;1.50;;
77078;SDS011;66004;55.096;38.760;2023-06-14T13:02:52;3.00;;;2.00;;
77078;SDS011;66004;55.096;38.760;2023-06-14T13:05:18;3.40;;;1.83;;
77078;SDS011;66004;55.096;38.760;2023-06-14T13:07:44;3.88;;;1.55;;
77078;SDS011;66004;55.096;38.760;2023-06-14T13:10:10;6.07;;;1.80;;
77078;SDS011;66004;55.096;38.760;2023-06-14T13:12:36;4.07;;;1.98;;
77078;SDS011;66004;55.096;38.760;2023-06-14T13:15:02;3.35;;;1.73;;
77078;SDS011;66004;55.096;38.760;2023-06-14T13:17:28;2.70;;;1.50;;
77078;SDS011;66004;55.096;38.760;2023-06-14T13:19:53;3.63;;;1.77;;
77078;SDS011;66004;55.096;38.760;2023-06-14T13:22:19;2.45;;;1.70;;
77078;SDS011;66004;55.096;38.760;2023-06-14T13:24:45;3.08;;;1.98;;
77078;SDS011;66004;55.096;38.760;2023-06-14T13:27:10;3.75;;;1.67;;
77078;SDS011;66004;55.096;38.760;2023-06-14T13:29:38;4.25;;;2.00;;
77078;SDS011;66004;55.096;38.760;2023-06-14T13:32:03;5.55;;;1.90;;
77078;SDS011;66004;55.096;38.760;2023-06-14T13:34:30;4.45;;;1.60;;
77078;SDS011;66004;55.096;38.760;2023-06-14T13:36:55;3.95;;;2.35;;
77078;SDS011;66004;55.096;38.760;2023-06-14T13:39:21;2.95;;;1.67;;
77078;SDS011;66004;55.096;38.760;2023-06-14T13:41:47;4.05;;;1.70;;
77078;SDS011;66004;55.096;38.760;2023-06-14T13:44:12;3.03;;;1.75;;
77078;SDS011;66004;55.096;38.760;2023-06-14T13:46:40;7.38;;;1.63;;
77078;SDS011;66004;55.096;38.760;2023-06-14T13:49:08;3.40;;;1.67;;
77078;SDS011;66004;55.096;38.760;2023-06-14T13:51:33;4.18;;;1.92;;
77078;SDS011;66004;55.096;38.760;2023-06-14T13:54:00;4.63;;;2.10;;
77078;SDS011;66004;55.096;38.760;2023-06-14T13:56:26;4.95;;;1.83;;
77078;SDS011;66004;55.096;38.760;2023-06-14T13:58:51;4.45;;;1.80;;
77078;SDS011;66004;55.096;38.760;2023-06-14T14:01:17;4.43;;;2.00;;
77078;SDS011;66004;55.096;38.760;2023-06-14T14:03:44;2.30;;;1.75;;
77078;SDS011;66004;55.096;38.760;2023-06-14T14:06:11;6.15;;;2.03;;
77078;SDS011;66004;55.096;38.760;2023-06-14T14:08:37;4.57;;;2.20;;
77078;SDS011;66004;55.096;38.760;2023-06-14T14:11:03;5.22;;;1.80;;
77078;SDS011;66004;55.096;38.760;2023-06-14T14:13:31;4.60;;;1.73;;
77078;SDS011;66004;55.096;38.760;2023-06-14T14:16:01;5.20;;;1.90;;
77078;SDS011;66004;55.096;38.760;2023-06-14T14:18:26;3.88;;;1.63;;
77078;SDS011;66004;55.096;38.760;2023-06-14T14:20:52;4.05;;;1.80;;
77078;SDS011;66004;55.096;38.760;2023-06-14T14:23:17;5.32;;;1.98;;
77078;SDS011;66004;55.096;38.760;2023-06-14T14:25:45;4.80;;;1.90;;
77078;SDS011;66004;55.096;38.760;2023-06-14T14:28:10;3.35;;;2.00;;
77078;SDS011;66004;55.096;38.760;2023-06-14T14:30:42;9.50;;;2.03;;
77078;SDS011;66004;55.096;38.760;2023-06-14T14:33:08;8.38;;;2.38;;
77078;SDS011;66004;55.096;38.760;2023-06-14T14:35:33;5.97;;;2.10;;
77078;SDS011;66004;55.096;38.760;2023-06-14T14:37:59;2.83;;;1.77;;
77078;SDS011;66004;55.096;38.760;2023-06-14T14:40:24;3.88;;;1.98;;
77078;SDS011;66004;55.096;38.760;2023-06-14T14:42:50;7.28;;;1.75;;
77078;SDS011;66004;55.096;38.760;2023-06-14T14:45:19;4.85;;;2.00;;
77078;SDS011;66004;55.096;38.760;2023-06-14T14:47:44;7.25;;;2.17;;
77078;SDS011;66004;55.096;38.760;2023-06-14T14:50:16;6.00;;;2.28;;
77078;SDS011;66004;55.096;38.760;2023-06-14T14:52:45;4.43;;;2.05;;
77078;SDS011;66004;55.096;38.760;2023-06-14T14:55:23;6.78;;;1.90;;
77078;SDS011;66004;55.096;38.760;2023-06-14T14:57:51;5.40;;;1.90;;